Time;durP1;ratioP1;P1;durP2;ratioP2;P2;SDS_P1;SDS_P2;PMS_P1;PMS_P2;Temp;Humidity;BMP_temperature;BMP_pressure;BME280_temperature;BME280_humidity;BME280_pressure;Samples;Min_cycle;Max_cycle;Signal;HPM_P1;HPM_P2
2022/04/29 00:00:18;;;;;;;10.80;5.78;;;;;;;10.94;90.13;99711.05;1654079;87;21063;-81
2022/04/29 00:02:47;;;;;;;8.70;5.30;;;;;;;10.93;89.55;99717.16;1648322;86;21033;-80
2022/04/29 00:05:16;;;;;;;10.63;5.70;;;;;;;10.90;89.49;99711.98;1658304;86;21550;-81
2022/04/29 00:07:43;;;;;;;10.68;5.72;;;;;;;10.89;89.56;99702.03;1701404;84;21055;-81
2022/04/29 00:10:12;;;;;;;12.23;6.22;;;;;;;10.91;89.91;99708.07;1687994;85;21053;-80
2022/04/29 00:12:48;;;;;;;11.40;6.42;;;;;;;10.92;89.82;99694.20;1687464;85;21047;-81
2022/04/29 00:15:17;;;;;;;12.58;6.85;;;;;;;10.95;90.29;99694.58;1667818;86;21062;-80
2022/04/29 00:17:45;;;;;;;11.08;5.83;;;;;;;10.98;90.32;99694.95;1681169;84;21072;-80
2022/04/29 00:20:12;;;;;;;9.93;5.97;;;;;;;10.99;90.13;99696.23;1692106;84;20988;-80
2022/04/29 00:22:38;;;;;;;8.70;4.87;;;;;;;11.00;90.12;99699.69;1684117;85;21120;-80
2022/04/29 00:25:08;;;;;;;10.50;5.87;;;;;;;11.00;90.21;99700.57;1653961;86;21025;-80
2022/04/29 00:27:35;;;;;;;10.48;5.28;;;;;;;11.03;90.08;99697.90;1666200;86;21099;-81
2022/04/29 00:30:04;;;;;;;9.08;4.92;;;;;;;11.07;90.07;99698.71;1687639;85;21051;-80
2022/04/29 00:32:31;;;;;;;10.68;4.95;;;;;;;11.12;90.34;99696.45;1684945;84;21597;-80
2022/04/29 00:34:57;;;;;;;8.35;4.67;;;;;;;11.13;89.84;99707.25;1685067;85;20999;-80
2022/04/29 00:37:24;;;;;;;8.50;4.62;;;;;;;11.14;89.92;99702.48;1694607;84;21031;-80
2022/04/29 00:39:51;;;;;;;8.73;4.45;;;;;;;11.18;89.95;99701.11;1659318;85;20998;-80
2022/04/29 00:42:23;;;;;;;8.70;4.80;;;;;;;11.20;89.31;99696.31;1687333;85;21112;-81
2022/04/29 00:44:50;;;;;;;8.00;4.75;;;;;;;11.22;89.69;99702.77;1688702;85;20986;-80
2022/04/29 00:47:20;;;;;;;8.70;5.00;;;;;;;11.24;89.67;99704.48;1685818;85;21088;-80
2022/04/29 00:49:49;;;;;;;9.55;5.17;;;;;;;11.27;89.55;99708.31;1679569;85;20986;-81
2022/04/29 00:52:20;;;;;;;9.13;5.40;;;;;;;11.29;89.50;99706.98;1688831;85;21549;-81
2022/04/29 00:54:59;;;;;;;8.53;5.65;;;;;;;11.29;89.44;99706.54;1687321;85;21063;-80
2022/04/29 00:57:33;;;;;;;10.03;6.03;;;;;;;11.29;89.32;99712.20;1688037;85;21075;-82
2022/04/29 01:00:08;;;;;;;11.65;6.33;;;;;;;11.28;89.46;99711.34;1689861;84;21076;-82
2022/04/29 01:02:45;;;;;;;11.57;6.33;;;;;;;11.27;89.46;99716.58;1677855;85;21000;-80
2022/04/29 01:05:18;;;;;;;11.50;6.05;;;;;;;11.24;89.60;99708.39;1678329;85;21076;-82
2022/04/29 01:07:47;;;;;;;12.20;7.03;;;;;;;11.20;89.71;99705.42;1659049;85;21049;-82
2022/04/29 01:10:16;;;;;;;11.45;6.75;;;;;;;11.15;89.05;99709.39;1655735;86;20991;-80
2022/04/29 01:12:44;;;;;;;14.13;8.20;;;;;;;11.10;89.02;99711.65;1663155;86;21039;-81
2022/04/29 01:15:17;;;;;;;13.32;8.35;;;;;;;11.08;89.95;99709.52;1682676;83;21041;-81
2022/04/29 01:17:47;;;;;;;12.03;6.95;;;;;;;11.04;89.72;99711.76;1690838;85;21073;-81
2022/04/29 01:20:18;;;;;;;15.32;8.98;;;;;;;11.00;89.66;99699.69;1673796;85;21108;-82
2022/04/29 01:22:45;;;;;;;15.40;8.48;;;;;;;10.98;89.49;99698.86;1670181;86;21094;-81
2022/04/29 01:25:13;;;;;;;15.80;8.48;;;;;;;10.98;89.90;99702.77;1672624;86;21043;-80
2022/04/29 01:27:41;;;;;;;14.87;8.38;;;;;;;10.99;90.24;99697.98;1672020;84;21168;-80
2022/04/29 01:30:15;;;;;;;13.08;6.72;;;;;;;11.00;90.71;99692.77;1670271;84;21118;-83
2022/04/29 01:32:43;;;;;;;13.13;7.78;;;;;;;11.01;90.20;99694.92;1687273;84;21021;-81
2022/04/29 01:35:12;;;;;;;13.05;6.50;;;;;;;11.03;90.34;99691.39;1681497;84;21082;-81
2022/04/29 01:37:40;;;;;;;12.82;6.75;;;;;;;11.05;90.07;99695.28;1690608;85;21030;-81
2022/04/29 01:40:09;;;;;;;14.13;7.25;;;;;;;11.05;90.02;99692.67;1689958;85;21524;-80
2022/04/29 01:42:38;;;;;;;15.08;6.92;;;;;;;11.05;89.70;99691.38;1662969;86;21036;-80
2022/04/29 01:45:06;;;;;;;16.80;7.65;;;;;;;11.04;89.53;99693.12;1671113;84;21525;-81
2022/04/29 01:47:34;;;;;;;14.43;7.83;;;;;;;11.05;89.58;99684.87;1668446;86;21108;-81
2022/04/29 01:50:04;;;;;;;12.58;7.00;;;;;;;11.01;89.43;99681.45;1666878;86;21066;-80
2022/04/29 01:52:34;;;;;;;13.35;7.03;;;;;;;10.97;89.71;99681.55;1677978;84;21061;-80
2022/04/29 01:55:01;;;;;;;14.83;7.00;;;;;;;10.97;88.92;99682.84;1686339;84;21007;-81
2022/04/29 01:57:29;;;;;;;11.97;7.03;;;;;;;10.94;89.56;99684.62;1682257;85;21636;-80
2022/04/29 01:59:55;;;;;;;13.10;7.03;;;;;;;10.97;89.86;99686.30;1684360;85;21018;-80
2022/04/29 02:02:27;;;;;;;11.97;6.30;;;;;;;10.99;90.23;99682.38;1686333;83;21007;-81
2022/04/29 02:04:54;;;;;;;13.85;6.87;;;;;;;11.00;90.19;99690.58;1668950;84;21524;-81
2022/04/29 02:07:20;;;;;;;12.55;7.60;;;;;;;11.03;90.12;99691.84;1668728;86;21020;-80
2022/04/29 02:09:49;;;;;;;12.60;7.22;;;;;;;11.02;89.38;99679.70;1681529;83;21129;-81
2022/04/29 02:12:17;;;;;;;17.10;6.83;;;;;;;10.99;89.24;99683.68;1705883;83;21011;-81
2022/04/29 02:14:56;;;;;;;12.63;6.72;;;;;;;10.96;89.59;99687.17;1686986;83;21024;-82
2022/04/29 02:17:25;;;;;;;10.98;6.40;;;;;;;10.98;90.00;99684.55;1673066;83;21061;-81
2022/04/29 02:19:52;;;;;;;12.53;8.18;;;;;;;11.00;89.20;99691.47;1649417;86;21021;-80
2022/04/29 02:22:19;;;;;;;13.22;7.40;;;;;;;11.00;89.59;99691.47;1648223;85;21015;-80
2022/04/29 02:24:45;;;;;;;11.90;7.30;;;;;;;11.02;89.65;99691.41;1675954;85;20992;-81
2022/04/29 02:27:14;;;;;;;12.33;7.35;;;;;;;11.04;90.38;99685.32;1686444;83;21515;-81
2022/04/29 02:29:40;;;;;;;13.90;7.47;;;;;;;11.01;88.91;99684.06;1686146;83;21079;-80
2022/04/29 02:32:18;;;;;;;13.60;7.03;;;;;;;11.02;90.45;99686.21;1682482;83;21003;-81
2022/04/29 02:34:45;;;;;;;12.45;7.03;;;;;;;11.02;90.65;99684.48;1682667;85;21077;-80
2022/04/29 02:37:13;;;;;;;13.75;7.45;;;;;;;11.00;90.29;99685.38;1670070;86;21102;-82
2022/04/29 02:39:42;;;;;;;14.45;7.53;;;;;;;10.98;90.25;99687.15;1678677;85;21681;-82
2022/04/29 02:42:09;;;;;;;11.73;7.03;;;;;;;10.95;90.07;99684.17;1686485;85;21032;-81
2022/04/29 02:44:35;;;;;;;13.75;7.58;;;;;;;10.93;90.97;99688.09;1678347;85;21065;-81
2022/04/29 02:47:08;;;;;;;13.98;7.97;;;;;;;10.90;91.13;99679.05;1670476;84;21027;-81
2022/04/29 02:49:42;;;;;;;10.70;7.25;;;;;;;10.88;91.36;99679.52;1670490;86;21043;-81
2022/04/29 02:52:12;;;;;;;12.68;7.40;;;;;;;10.84;91.61;99685.66;1667569;85;21094;-80
2022/04/29 02:54:40;;;;;;;13.95;7.85;;;;;;;10.81;91.70;99684.85;1686619;85;21051;-81
2022/04/29 02:57:09;;;;;;;12.88;8.10;;;;;;;10.77;91.09;99690.53;1687525;83;21056;-81
2022/04/29 02:59:40;;;;;;;16.80;7.47;;;;;;;10.75;91.68;99693.16;1682885;83;21045;-81
2022/04/29 03:02:08;;;;;;;14.70;8.08;;;;;;;10.75;91.89;99694.45;1686223;85;21108;-80
2022/04/29 03:04:36;;;;;;;14.33;7.85;;;;;;;10.74;91.84;99694.48;1683605;84;21003;-80
2022/04/29 03:07:03;;;;;;;16.20;7.90;;;;;;;10.73;91.76;99697.52;1669549;85;21024;-81
2022/04/29 03:09:32;;;;;;;17.02;8.00;;;;;;;10.74;91.69;99703.58;1645305;85;21025;-80
2022/04/29 03:11:59;;;;;;;14.65;8.13;;;;;;;10.75;91.61;99702.27;1687743;84;21016;-80
2022/04/29 03:14:28;;;;;;;15.40;8.08;;;;;;;10.73;91.43;99704.03;1675904;84;21097;-81
2022/04/29 03:16:54;;;;;;;16.12;7.85;;;;;;;10.74;91.64;99706.17;1688119;84;21530;-83
2022/04/29 03:19:21;;;;;;;15.15;8.33;;;;;;;10.72;90.76;99710.55;1700675;84;21015;-84
2022/04/29 03:21:48;;;;;;;16.10;8.05;;;;;;;10.72;91.51;99710.55;1678519;85;21037;-81
2022/04/29 03:24:15;;;;;;;16.25;8.78;;;;;;;10.75;91.64;99720.47;1680586;85;22336;-80
2022/04/29 03:26:42;;;;;;;16.48;7.78;;;;;;;10.80;91.60;99716.93;1673144;85;21060;-81
2022/04/29 03:29:09;;;;;;;14.18;7.72;;;;;;;10.80;91.23;99719.08;1668245;85;21535;-80
2022/04/29 03:31:36;;;;;;;15.85;8.18;;;;;;;10.83;91.27;99724.70;1687947;85;21020;-81
2022/04/29 03:34:18;;;;;;;16.70;9.60;;;;;;;10.82;90.28;99723.81;1712240;83;21182;-80
2022/04/29 03:36:45;;;;;;;17.52;9.83;;;;;;;10.83;90.78;99723.40;1696135;84;21535;-82
2022/04/29 03:39:12;;;;;;;21.35;10.85;;;;;;;10.84;90.36;99724.68;1664243;86;21019;-81
2022/04/29 03:41:38;;;;;;;16.90;9.48;;;;;;;10.85;89.96;99726.83;1673309;86;21580;-81
2022/04/29 03:44:06;;;;;;;20.72;10.98;;;;;;;10.83;90.34;99724.25;1704955;84;21077;-82
2022/04/29 03:46:34;;;;;;;21.15;11.83;;;;;;;10.78;90.36;99735.16;1664303;86;21150;-80
2022/04/29 03:52:20;;;;;;;21.27;10.58;;;;;;;10.77;91.12;99734.75;1680230;84;21033;-80
2022/04/29 03:54:49;;;;;;;19.75;10.13;;;;;;;10.79;90.28;99739.48;1688081;85;21048;-81
2022/04/29 03:57:16;;;;;;;23.77;10.88;;;;;;;10.77;90.49;99734.75;1653267;86;21128;-82
2022/04/29 03:59:43;;;;;;;21.48;12.13;;;;;;;10.76;91.16;99735.62;1654005;85;21016;-80
2022/04/29 04:02:09;;;;;;;21.75;12.47;;;;;;;10.76;91.47;99735.62;1648459;86;21081;-80
2022/04/29 04:04:36;;;;;;;30.77;16.00;;;;;;;10.75;90.42;99739.97;1672086;86;21076;-82
2022/04/29 04:07:04;;;;;;;29.85;16.80;;;;;;;10.75;90.99;99739.12;1672516;86;21056;-82
2022/04/29 04:09:35;;;;;;;33.28;17.10;;;;;;;10.77;91.30;99748.20;1673565;84;21055;-81
2022/04/29 04:12:05;;;;;;;45.83;18.85;;;;;;;10.73;91.33;99741.73;1706031;84;21062;-81
2022/04/29 04:14:36;;;;;;;47.15;21.12;;;;;;;10.70;90.61;99743.10;1697432;84;21053;-81
2022/04/29 04:17:03;;;;;;;39.35;18.25;;;;;;;10.72;90.69;99744.36;1672568;84;21057;-81
2022/04/29 04:19:29;;;;;;;27.58;14.68;;;;;;;10.74;91.12;99746.48;1669560;86;21092;-80
2022/04/29 04:21:56;;;;;;;26.23;13.18;;;;;;;10.80;90.82;99753.34;1672500;84;21014;-81
2022/04/29 04:24:23;;;;;;;25.12;12.13;;;;;;;10.82;91.19;99747.22;1687465;85;21060;-81
2022/04/29 04:26:49;;;;;;;22.13;11.83;;;;;;;10.85;90.47;99745.89;1660877;85;21024;-80
2022/04/29 04:29:18;;;;;;;20.17;11.97;;;;;;;10.86;90.39;99747.63;1659621;86;21120;-80
2022/04/29 04:31:47;;;;;;;22.45;11.35;;;;;;;10.90;91.41;99744.51;1670512;85;21040;-81
2022/04/29 04:37:01;;;;;;;23.20;12.65;;;;;;;10.97;90.74;99753.09;1682613;83;21001;-81
2022/04/29 04:39:28;;;;;;;25.45;12.70;;;;;;;10.93;91.34;99750.53;1671844;85;21110;-81
2022/04/29 04:41:57;;;;;;;23.65;12.37;;;;;;;10.93;91.33;99763.53;1678483;84;21102;-81
2022/04/29 04:44:26;;;;;;;25.48;11.88;;;;;;;10.92;92.03;99759.65;1684357;84;20991;-81
2022/04/29 04:46:53;;;;;;;25.75;12.35;;;;;;;10.98;91.92;99755.64;1706358;84;20990;-81
2022/04/29 04:49:22;;;;;;;26.05;13.80;;;;;;;11.02;91.59;99764.27;1671002;86;21126;-81
2022/04/29 04:51:59;;;;;;;23.85;12.00;;;;;;;11.07;92.15;99766.36;1673519;85;20996;-81
2022/04/29 04:54:26;;;;;;;22.58;10.78;;;;;;;11.14;91.48;99771.45;1644272;86;21090;-81
2022/04/29 04:56:52;;;;;;;18.37;9.88;;;;;;;11.18;91.00;99767.05;1669809;86;21039;-81
2022/04/29 04:59:19;;;;;;;18.02;9.68;;;;;;;11.24;91.37;99773.45;1667806;85;21053;-81
2022/04/29 05:01:46;;;;;;;19.48;11.68;;;;;;;11.32;90.71;99775.91;1667887;86;21539;-81
2022/04/29 05:04:31;;;;;;;19.10;11.88;;;;;;;11.33;90.77;99773.28;1682365;85;21065;-82
2022/04/29 05:07:06;;;;;;;22.25;11.08;;;;;;;11.33;90.40;99769.38;1619022;86;21108;-81
2022/04/29 05:09:32;;;;;;;19.55;11.55;;;;;;;11.32;90.23;99772.87;1661922;86;20995;-82
2022/04/29 05:11:59;;;;;;;18.17;11.40;;;;;;;11.35;90.41;99779.31;1659456;86;21618;-81
2022/04/29 05:14:28;;;;;;;17.30;11.03;;;;;;;11.35;90.27;99774.56;1625256;86;21542;-82
2022/04/29 05:16:55;;;;;;;17.27;10.58;;;;;;;11.35;89.93;99775.41;1660700;86;21139;-82
2022/04/29 05:19:40;;;;;;;21.15;11.97;;;;;;;11.33;89.61;99781.09;1662725;86;20993;-81
2022/04/29 05:22:07;;;;;;;19.90;11.57;;;;;;;11.29;90.58;99780.73;1709421;83;21036;-81
2022/04/29 05:24:34;;;;;;;21.33;11.70;;;;;;;11.34;90.29;99787.17;1687741;85;21055;-82
2022/04/29 05:27:19;;;;;;;17.62;11.08;;;;;;;11.37;89.91;99788.86;1659834;86;21507;-81
2022/04/29 05:30:00;;;;;;;22.05;10.68;;;;;;;11.43;90.24;99785.70;1627202;87;21100;-81
2022/04/29 05:32:46;;;;;;;20.92;11.45;;;;;;;11.53;89.76;99792.91;1625435;88;21062;-82
2022/04/29 05:35:13;;;;;;;21.93;12.40;;;;;;;11.55;89.13;99788.53;1620558;88;21191;-82
2022/04/29 05:38:01;;;;;;;23.77;12.30;;;;;;;11.63;89.29;99794.45;1671475;85;21004;-81
2022/04/29 05:43:14;;;;;;;17.77;9.43;;;;;;;11.87;88.54;99798.34;1720563;83;21024;-86
2022/04/29 05:45:41;;;;;;;14.20;7.75;;;;;;;12.01;88.32;99799.86;1719743;83;21149;-80
2022/04/29 05:48:08;;;;;;;15.70;7.70;;;;;;;12.14;87.82;99807.86;1709643;84;21025;-82
2022/04/29 05:50:36;;;;;;;17.05;6.75;;;;;;;12.28;85.96;99805.83;1718262;83;21105;-81
2022/04/29 05:53:04;;;;;;;10.78;6.47;;;;;;;12.44;86.46;99810.27;1716358;83;21351;-82
2022/04/29 05:55:31;;;;;;;11.25;5.95;;;;;;;12.59;85.31;99814.73;1705001;83;21045;-81
2022/04/29 05:57:59;;;;;;;8.33;4.80;;;;;;;12.66;83.47;99813.73;1708408;83;22216;-83
2022/04/29 06:00:26;;;;;;;8.68;5.12;;;;;;;12.65;82.90;99815.91;1707845;83;21026;-82
2022/04/29 06:02:55;;;;;;;9.73;5.10;;;;;;;12.64;82.85;99817.66;1715687;82;21139;-81
2022/04/29 06:05:22;;;;;;;9.88;4.53;;;;;;;12.60;82.56;99813.41;1714034;83;21056;-79
2022/04/29 06:07:50;;;;;;;8.15;4.72;;;;;;;12.68;82.88;99815.85;1702287;83;20976;-82
2022/04/29 06:10:23;;;;;;;13.70;4.85;;;;;;;12.66;82.35;99816.33;1714169;82;21002;-83
2022/04/29 06:12:48;;;;;;;7.97;4.12;;;;;;;12.69;81.63;99822.77;1744004;82;21005;-82
2022/04/29 06:15:19;;;;;;;6.62;3.72;;;;;;;12.75;82.39;99825.23;1722608;81;21289;-82
2022/04/29 06:17:50;;;;;;;4.35;2.80;;;;;;;12.81;81.51;99824.25;1687906;82;21052;-83
2022/04/29 06:20:36;;;;;;;5.15;2.47;;;;;;;12.78;79.99;99828.25;1708951;82;21071;-90
2022/04/29 06:23:21;;;;;;;6.00;2.55;;;;;;;12.81;78.92;99825.13;1705074;83;21033;-83
2022/04/29 06:25:49;;;;;;;8.10;2.10;;;;;;;12.93;79.91;99826.15;1703589;83;21714;-83
2022/04/29 06:28:16;;;;;;;4.87;2.50;;;;;;;12.96;77.27;99827.83;1723490;83;21070;-84
2022/04/29 06:30:43;;;;;;;6.10;2.62;;;;;;;13.07;77.36;99832.78;1699222;83;21107;-85
2022/04/29 06:33:17;;;;;;;4.70;2.98;;;;;;;13.18;77.71;99832.55;1704428;83;21034;-82
2022/04/29 06:35:47;;;;;;;5.28;2.47;;;;;;;13.33;78.93;99831.76;1663861;84;20991;-86
2022/04/29 06:38:14;;;;;;;8.10;3.12;;;;;;;13.42;76.68;99836.34;1639946;87;21074;-82
2022/04/29 06:40:45;;;;;;;17.20;6.60;;;;;;;13.48;77.55;99838.80;1624918;87;21100;-84
2022/04/29 06:43:12;;;;;;;6.58;3.35;;;;;;;13.59;76.98;99842.00;1662403;85;21040;-81
2022/04/29 06:45:58;;;;;;;3.05;1.65;;;;;;;13.66;76.61;99846.16;1667020;85;21038;-84
2022/04/29 06:48:35;;;;;;;5.05;1.80;;;;;;;13.73;75.12;99846.88;1613907;89;21096;-83
2022/04/29 06:51:11;;;;;;;3.20;1.40;;;;;;;13.67;74.70;99847.04;1651843;85;21550;-79
2022/04/29 06:53:40;;;;;;;6.15;1.92;;;;;;;13.70;73.18;99850.86;1649966;85;21111;-82
2022/04/29 06:56:08;;;;;;;3.72;1.90;;;;;;;13.76;75.01;99847.23;1666569;84;20996;-81
2022/04/29 06:58:34;;;;;;;5.97;1.90;;;;;;;13.64;73.58;99850.56;1640160;86;20971;-81
2022/04/29 07:01:02;;;;;;;6.05;2.05;;;;;;;13.67;74.36;99849.65;1664752;85;21040;-87
2022/04/29 07:03:29;;;;;;;7.53;2.80;;;;;;;13.71;74.54;99849.98;1678142;82;21036;-81
2022/04/29 07:05:59;;;;;;;5.47;3.22;;;;;;;13.82;73.62;99847.07;1664237;85;21237;-86
2022/04/29 07:08:25;;;;;;;6.78;3.47;;;;;;;13.96;74.70;99856.70;1656354;85;21069;-86
2022/04/29 07:11:06;;;;;;;7.92;4.33;;;;;;;14.10;73.89;99846.72;1661837;85;21118;-86
2022/04/29 07:13:44;;;;;;;8.60;4.25;;;;;;;14.26;74.66;99850.23;1679979;85;20996;-85
2022/04/29 07:16:11;;;;;;;6.45;3.17;;;;;;;14.38;73.30;99849.88;1667165;85;21068;-82
2022/04/29 07:18:57;;;;;;;6.20;2.90;;;;;;;14.52;73.29;99851.66;1664961;85;21067;-83
2022/04/29 07:21:24;;;;;;;14.03;5.45;;;;;;;14.59;72.61;99851.05;1645921;85;21065;-82
2022/04/29 07:23:51;;;;;;;5.35;2.62;;;;;;;14.69;69.35;99854.26;1624432;87;21070;-82
2022/04/29 07:26:18;;;;;;;2.62;1.62;;;;;;;14.70;70.95;99853.34;1706330;83;21103;-83
2022/04/29 07:28:45;;;;;;;3.55;1.82;;;;;;;14.72;71.33;99850.22;1660421;85;21630;-81
2022/04/29 07:31:13;;;;;;;3.90;1.80;;;;;;;14.76;70.82;99861.00;1636903;86;21088;-81
2022/04/29 07:33:44;;;;;;;3.67;1.77;;;;;;;14.74;70.10;99860.19;1686775;83;21535;-81
2022/04/29 07:41:52;;;;;;;2.55;1.60;;;;;;;14.85;68.07;99856.81;1659959;85;21328;-82
2022/04/29 07:44:21;;;;;;;4.47;1.90;;;;;;;15.06;68.44;99862.28;1660306;85;21032;-80
2022/04/29 07:46:49;;;;;;;3.30;1.75;;;;;;;15.18;66.93;99859.73;1658468;85;21005;-80
2022/04/29 07:49:38;;;;;;;4.50;2.00;;;;;;;15.21;66.99;99865.73;1639348;86;20991;-80
2022/04/29 07:52:06;;;;;;;6.45;2.20;;;;;;;15.28;65.40;99873.81;1655424;85;21444;-77
2022/04/29 07:54:34;;;;;;;4.00;2.20;;;;;;;15.41;67.56;99864.24;1630951;86;21012;-82
2022/04/29 07:57:01;;;;;;;3.42;2.02;;;;;;;15.57;68.34;99871.14;1660820;85;21040;-84
2022/04/29 07:59:28;;;;;;;4.15;2.37;;;;;;;15.70;67.39;99866.75;1633242;86;21056;-79
2022/04/29 08:01:56;;;;;;;4.25;1.95;;;;;;;15.74;67.46;99867.55;1660558;85;21048;-78
2022/04/29 08:04:23;;;;;;;3.40;1.90;;;;;;;15.57;64.88;99854.95;1657311;85;21048;-79
2022/04/29 08:06:50;;;;;;;4.37;2.00;;;;;;;15.56;65.88;99862.44;1661453;85;21035;-81
2022/04/29 08:09:17;;;;;;;3.83;2.30;;;;;;;15.55;64.96;99859.39;1658516;85;21507;-79
2022/04/29 08:11:43;;;;;;;4.58;2.30;;;;;;;15.56;65.75;99858.50;1658184;85;21165;-80
2022/04/29 08:14:29;;;;;;;5.08;2.80;;;;;;;15.68;64.82;99859.86;1658636;85;21050;-82
2022/04/29 08:17:06;;;;;;;4.35;2.45;;;;;;;15.71;65.39;99858.42;1631221;85;21063;-79
2022/04/29 08:19:34;;;;;;;3.70;2.33;;;;;;;15.80;64.86;99856.00;1648748;85;21018;-78
2022/04/29 08:22:04;;;;;;;3.15;1.95;;;;;;;15.95;65.16;99855.91;1655855;84;21170;-82
2022/04/29 08:24:31;;;;;;;4.35;1.90;;;;;;;15.96;64.86;99854.55;1630945;86;21016;-79
2022/04/29 08:26:57;;;;;;;3.90;1.92;;;;;;;16.00;63.06;99850.91;1696059;83;21530;-82
2022/04/29 08:29:24;;;;;;;3.75;2.00;;;;;;;16.07;64.75;99855.00;1695414;83;21095;-80
2022/04/29 08:31:51;;;;;;;3.52;2.10;;;;;;;16.13;63.38;99849.15;1692136;83;20992;-84
2022/04/29 08:34:17;;;;;;;5.30;2.25;;;;;;;16.01;63.65;99855.69;1693793;83;21019;-85
2022/04/29 08:36:45;;;;;;;4.33;2.08;;;;;;;16.10;62.18;99853.59;1661085;85;20972;-80
2022/04/29 08:39:12;;;;;;;3.47;1.77;;;;;;;16.09;63.17;99853.21;1689406;83;21059;-79
2022/04/29 08:41:40;;;;;;;12.95;2.33;;;;;;;16.08;62.76;99849.33;1694787;83;21499;-78
2022/04/29 08:44:10;;;;;;;4.17;2.20;;;;;;;16.12;64.18;99849.61;1693146;83;21091;-79
2022/04/29 08:46:45;;;;;;;2.72;1.72;;;;;;;16.30;64.19;99846.78;1689182;83;21071;-80
2022/04/29 09:31:58;;;;;;;3.58;2.00;;;;;;;16.93;58.28;99812.04;1789651;78;22956;-81
2022/04/29 09:34:50;;;;;;;3.87;2.05;;;;;;;16.96;59.67;99815.41;1750322;81;21020;-77
2022/04/29 09:37:23;;;;;;;2.30;1.67;;;;;;;17.04;58.42;99817.73;1710325;81;21063;-79
2022/04/29 09:39:51;;;;;;;3.08;1.45;;;;;;;17.12;59.38;99815.64;1721620;81;21014;-79
2022/04/29 09:42:18;;;;;;;3.20;1.60;;;;;;;17.18;59.05;99813.23;1719027;81;21579;-81
2022/04/29 09:44:45;;;;;;;4.78;1.90;;;;;;;17.41;58.15;99816.23;1688974;83;21038;-81
2022/04/29 09:47:21;;;;;;;5.65;1.90;;;;;;;17.47;59.50;99809.41;1705020;83;21550;-80
2022/04/29 09:49:54;;;;;;;2.98;1.82;;;;;;;17.50;55.90;99815.36;1683025;83;21104;-79
2022/04/29 09:52:32;;;;;;;3.37;2.00;;;;;;;17.52;56.33;99822.34;1711310;82;21026;-81
2022/04/29 09:55:15;;;;;;;4.33;2.22;;;;;;;17.41;54.84;99813.14;1717757;83;21026;-81
2022/04/29 09:57:52;;;;;;;5.62;1.98;;;;;;;17.43;56.46;99815.71;1705284;82;21028;-81
2022/04/29 10:00:19;;;;;;;5.05;2.05;;;;;;;17.61;57.79;99813.61;1715504;82;21038;-80
2022/04/29 10:02:50;;;;;;;5.35;1.80;;;;;;;17.64;56.64;99816.56;1723102;82;20989;-86
2022/04/29 10:05:23;;;;;;;7.65;1.70;;;;;;;17.65;54.24;99817.81;1720445;83;21019;-88
2022/04/29 10:07:54;;;;;;;2.30;1.62;;;;;;;17.80;56.74;99815.44;1685270;84;21161;-85
2022/04/29 10:10:24;;;;;;;2.50;1.60;;;;;;;17.99;56.36;99801.07;1724271;82;21089;-86
2022/04/29 10:12:53;;;;;;;2.45;1.37;;;;;;;18.20;56.08;99807.12;1714664;82;21056;-82
2022/04/29 10:15:28;;;;;;;3.17;1.67;;;;;;;18.19;55.41;99802.34;1710181;82;21187;-83
2022/04/29 10:21:17;;;;;;;5.85;1.80;;;;;;;18.07;52.38;99802.42;1637036;84;21031;-84
2022/04/29 10:23:59;;;;;;;3.65;1.85;;;;;;;17.97;53.88;99802.91;1688721;84;21102;-89
2022/04/29 10:26:26;;;;;;;3.92;1.75;;;;;;;17.92;54.13;99803.09;1691637;83;21026;-84
2022/04/29 10:28:54;;;;;;;4.97;1.95;;;;;;;17.88;52.96;99802.84;1688760;84;21179;-85
2022/04/29 10:31:22;;;;;;;3.00;1.70;;;;;;;17.91;55.31;99788.72;1659254;84;21044;-83
2022/04/29 10:33:49;;;;;;;3.33;1.40;;;;;;;18.11;55.03;99795.72;1680208;84;21020;-84
2022/04/29 10:36:20;;;;;;;2.92;1.60;;;;;;;18.17;54.46;99792.34;1676245;84;21054;-85
2022/04/29 10:38:47;;;;;;;3.40;1.70;;;;;;;18.27;53.40;99799.36;1716990;83;20973;-86
2022/04/29 10:41:24;;;;;;;3.00;1.50;;;;;;;18.42;54.41;99792.52;1712661;82;21040;-84
2022/04/29 10:43:56;;;;;;;4.28;1.72;;;;;;;18.48;53.91;99788.28;1711798;82;21047;-83
2022/04/29 10:46:36;;;;;;;6.22;1.82;;;;;;;18.65;52.47;99793.63;1681581;83;21135;-84
2022/04/29 10:49:26;;;;;;;2.27;1.50;;;;;;;18.55;52.21;99794.14;1716730;82;21062;-85
2022/04/29 10:52:21;;;;;;;4.42;1.80;;;;;;;18.64;52.17;99793.69;1716720;83;21033;-82
2022/04/29 10:54:59;;;;;;;3.33;1.77;;;;;;;18.84;52.12;99793.64;1705357;83;21024;-88
2022/04/29 10:57:46;;;;;;;2.95;1.52;;;;;;;18.90;50.18;99789.87;1725180;82;21179;-82
2022/04/29 11:00:22;;;;;;;5.83;1.72;;;;;;;19.09;51.31;99779.27;1680327;83;21055;-82
2022/04/29 11:02:48;;;;;;;1.95;1.35;;;;;;;19.12;49.39;99778.25;1720795;82;21000;-84
2022/04/29 11:05:36;;;;;;;9.40;3.90;;;;;;;19.18;49.08;99784.09;1721796;82;21110;-87
2022/04/29 11:08:11;;;;;;;241.23;69.70;;;;;;;19.02;49.85;99784.44;1722545;80;21075;-86
2022/04/29 11:10:58;;;;;;;91.80;38.13;;;;;;;19.23;50.54;99776.79;1716451;82;21024;-87
2022/04/29 11:13:30;;;;;;;169.97;77.58;;;;;;;19.42;49.50;99779.37;1711930;79;21025;-85
2022/04/29 11:16:13;;;;;;;353.52;188.00;;;;;;;19.65;49.68;99779.97;1716738;82;21112;-84
2022/04/29 11:19:25;;;;;;;74.47;37.33;;;;;;;19.58;49.38;99782.08;1708044;83;21102;-85
2022/04/29 11:25:22;;;;;;;27.32;13.35;;;;;;;19.40;49.96;99775.95;1737862;79;21119;-85
2022/04/29 11:27:52;;;;;;;17.55;9.38;;;;;;;19.19;48.28;99777.88;1735008;81;21060;-81
2022/04/29 11:30:20;;;;;;;9.60;5.22;;;;;;;19.23;48.80;99771.52;1707074;82;21011;-84
2022/04/29 11:32:58;;;;;;;7.80;3.17;;;;;;;19.07;50.20;99767.48;1737001;82;21071;-83
2022/04/29 11:35:25;;;;;;;6.87;3.45;;;;;;;19.08;49.52;99768.35;1738620;81;20991;-79
2022/04/29 11:37:51;;;;;;;6.47;4.10;;;;;;;19.15;49.94;99762.30;1740574;81;20924;-83
2022/04/29 11:40:18;;;;;;;4.72;2.70;;;;;;;19.24;50.41;99768.44;1718743;81;21015;-80
2022/04/29 11:42:52;;;;;;;6.75;3.30;;;;;;;19.35;50.44;99769.20;1728974;81;21489;-80
2022/04/29 11:45:23;;;;;;;5.37;2.60;;;;;;;19.18;48.16;99763.00;1741745;81;20998;-82
2022/04/29 11:47:51;;;;;;;5.55;2.05;;;;;;;19.09;49.39;99758.19;1740127;82;21047;-80
2022/04/29 11:50:31;;;;;;;2.80;1.70;;;;;;;19.20;49.07;99755.00;1739124;81;21371;-79
2022/04/29 11:53:10;;;;;;;2.58;1.50;;;;;;;19.14;49.20;99756.63;1740953;81;21039;-81
2022/04/29 11:55:38;;;;;;;2.47;1.50;;;;;;;19.05;48.92;99756.63;1694328;83;20979;-79
2022/04/29 11:58:08;;;;;;;2.10;1.47;;;;;;;19.00;49.68;99750.28;1643601;84;20997;-82
2022/04/29 12:00:35;;;;;;;2.02;1.30;;;;;;;18.97;49.18;99742.52;1687098;83;20965;-83
2022/04/29 12:03:04;;;;;;;5.60;1.72;;;;;;;19.09;49.28;99750.28;1677469;83;21083;-82
2022/04/29 12:05:32;;;;;;;3.98;1.30;;;;;;;19.00;48.45;99749.41;1681012;83;20980;-82
2022/04/29 12:08:02;;;;;;;3.52;1.37;;;;;;;19.07;48.84;99750.81;1683438;84;21056;-81
2022/04/29 12:10:33;;;;;;;3.55;1.50;;;;;;;19.33;49.43;99745.55;1683778;83;21067;-80
2022/04/29 12:13:02;;;;;;;4.25;1.52;;;;;;;19.63;49.23;99740.95;1679096;84;21028;-81
2022/04/29 12:15:32;;;;;;;3.33;1.60;;;;;;;19.90;49.26;99741.31;1676037;84;20964;-83
2022/04/29 12:18:01;;;;;;;5.17;1.22;;;;;;;20.18;49.13;99738.52;1682061;83;21126;-82
2022/04/29 12:20:30;;;;;;;2.52;1.30;;;;;;;20.45;48.21;99738.31;1680591;83;21083;-85
2022/04/29 12:23:13;;;;;;;1.87;1.20;;;;;;;20.46;46.66;99729.44;1665846;83;21012;-82
2022/04/29 12:45:25;;;;;;;11.40;2.25;;;;;;;22.21;42.29;99718.71;1774878;78;22908;-89
2022/04/29 12:48:05;;;;;;;3.98;1.50;;;;;;;22.20;42.17;99715.67;1749369;80;21137;-91
2022/04/29 12:50:41;;;;;;;7.53;1.42;;;;;;;22.51;42.49;99715.08;1738059;82;20960;-91
2022/04/29 12:53:16;;;;;;;2.45;1.40;;;;;;;22.57;40.65;99703.59;1742161;82;21042;-91
2022/04/29 12:55:51;;;;;;;3.08;1.77;;;;;;;22.97;41.53;99699.64;1740916;82;21026;-91
2022/04/29 12:58:21;;;;;;;2.12;1.47;;;;;;;23.84;37.67;99695.98;1721281;82;21097;-91
2022/04/29 13:00:59;;;;;;;2.22;1.20;;;;;;;24.44;37.99;99698.31;1744177;82;21047;-91
2022/04/29 13:03:30;;;;;;;4.90;1.57;;;;;;;24.57;37.66;99689.85;1747359;81;20939;-88
2022/04/29 13:06:00;;;;;;;2.67;1.40;;;;;;;25.00;37.49;99687.11;1740101;82;20997;-89